This is the latest recevied weather packets stored in our database for station/object HB9MIR-13. If no packets are shown the sender has not sent any weather packets the latest 10 day(s).
| Time | Temp. | Humidity | Pressure | Rain* | Wind** | Luminosity | Snow |
|---|---|---|---|---|---|---|---|
| 1777222179 | 22.22° C | 20% | 1016.6 hPa | 0 mm | - | 128 W/m² | - |
| 1777221477 | 23.33° C | 21% | 1016.6 hPa | 0 mm | - | 54 W/m² | - |
| 1777220790 | 23.33° C | 25% | 1016.7 hPa | 0 mm | - | 60 W/m² | - |
| 1777220102 | 22.78° C | 21% | 1016.9 hPa | 0 mm | - | 230 W/m² | - |
| 1777219416 | 23.33° C | 23% | 1016.9 hPa | 0 mm | - | 268 W/m² | - |
| 1777218728 | 23.33° C | 21% | 1016.8 hPa | 0 mm | - | 303 W/m² | - |
| 1777218041 | 23.33° C | 23% | 1016.8 hPa | 0 mm | - | 339 W/m² | - |
| 1777217366 | 23.89° C | 23% | 1017 hPa | 0 mm | - | 376 W/m² | - |
| 1777216666 | 23.33° C | 21% | 1016.9 hPa | 0 mm | - | 418 W/m² | - |
| 1777215980 | 23.33° C | 23% | 1017.3 hPa | 0 mm | - | 453 W/m² | - |
| 1777215293 | 23.89° C | 24% | 1017.4 hPa | 0 mm | - | 491 W/m² | - |
| 1777214606 | 23.33° C | 21% | 1017.1 hPa | 0 mm | - | 521 W/m² | - |
| 1777213917 | 22.78° C | 20% | 1017.4 hPa | 0 mm | - | 556 W/m² | - |
| 1777213228 | 23.33° C | 22% | 1017.6 hPa | 0 mm | - | 587 W/m² | - |
| 1777212553 | 22.78° C | 22% | 1017.7 hPa | 0 mm | - | 619 W/m² | - |
| 1777211852 | 22.78° C | 21% | 1017.7 hPa | 0 mm | - | 641 W/m² | - |
| 1777211164 | 22.78° C | 22% | 1018 hPa | 0 mm | - | 665 W/m² | - |
| 1777210475 | 22.78° C | 22% | 1017.7 hPa | 0 mm | - | 681 W/m² | - |
| 1777209789 | 22.78° C | 23% | 1018.1 hPa | 0 mm | - | 708 W/m² | - |
| 1777209101 | 21.67° C | 23% | 1018 hPa | 0 mm | - | 746 W/m² | - |
| 1777208414 | 22.22° C | 25% | 1018.4 hPa | 0 mm | - | 673 W/m² | - |
| 1777207740 | 22.22° C | 29% | 1018.6 hPa | 0 mm | - | 838 W/m² | - |
| 1777207042 | 22.22° C | 28% | 1018.2 hPa | 0 mm | - | 739 W/m² | - |
| 1777206353 | 21.67° C | 25% | 1018.9 hPa | 0 mm | - | 815 W/m² | - |
| 1777205667 | 21.67° C | 27% | 1019 hPa | 0 mm | - | 808 W/m² | - |
* Rain latest hour (hover to see other rain measurements)
** Current wind speed in m/s (hover to see current wind gust speed)